sensor_id;sensor_type;location;lat;lon;timestamp;temperature;humidity
13898;DHT22;7019;50.766;4.474;2022-07-17T00:02:03;14.10;99.90
13898;DHT22;7019;50.766;4.474;2022-07-17T00:04:30;14.00;99.90
13898;DHT22;7019;50.766;4.474;2022-07-17T00:06:58;14.00;99.90
13898;DHT22;7019;50.766;4.474;2022-07-17T00:09:25;14.10;99.90
13898;DHT22;7019;50.766;4.474;2022-07-17T00:11:52;14.10;99.90
13898;DHT22;7019;50.766;4.474;2022-07-17T00:14:20;14.00;99.90
13898;DHT22;7019;50.766;4.474;2022-07-17T00:16:47;14.00;99.90
13898;DHT22;7019;50.766;4.474;2022-07-17T00:19:15;14.00;99.90
13898;DHT22;7019;50.766;4.474;2022-07-17T00:21:42;13.90;99.90
13898;DHT22;7019;50.766;4.474;2022-07-17T00:24:09;13.90;99.90
13898;DHT22;7019;50.766;4.474;2022-07-17T00:26:37;13.80;99.90
13898;DHT22;7019;50.766;4.474;2022-07-17T00:29:04;13.80;99.90
13898;DHT22;7019;50.766;4.474;2022-07-17T00:31:32;13.70;99.90
13898;DHT22;7019;50.766;4.474;2022-07-17T00:33:59;13.80;99.90
13898;DHT22;7019;50.766;4.474;2022-07-17T00:36:26;13.70;99.90
13898;DHT22;7019;50.766;4.474;2022-07-17T00:38:53;13.70;99.90
13898;DHT22;7019;50.766;4.474;2022-07-17T00:41:20;13.70;99.90
13898;DHT22;7019;50.766;4.474;2022-07-17T00:43:48;13.70;99.90
13898;DHT22;7019;50.766;4.474;2022-07-17T00:46:15;13.60;99.90
13898;DHT22;7019;50.766;4.474;2022-07-17T00:48:43;13.60;99.90
13898;DHT22;7019;50.766;4.474;2022-07-17T00:51:10;13.60;99.90
13898;DHT22;7019;50.766;4.474;2022-07-17T00:53:37;13.60;99.90
13898;DHT22;7019;50.766;4.474;2022-07-17T00:56:07;13.50;99.90
13898;DHT22;7019;50.766;4.474;2022-07-17T00:58:35;13.50;99.90
13898;DHT22;7019;50.766;4.474;2022-07-17T01:01:04;13.40;99.90
13898;DHT22;7019;50.766;4.474;2022-07-17T01:03:33;13.40;99.90
13898;DHT22;7019;50.766;4.474;2022-07-17T01:06:02;13.40;99.90
13898;DHT22;7019;50.766;4.474;2022-07-17T01:08:29;13.40;99.90
13898;DHT22;7019;50.766;4.474;2022-07-17T01:10:56;13.40;99.90
13898;DHT22;7019;50.766;4.474;2022-07-17T01:13:23;13.30;99.90
13898;DHT22;7019;50.766;4.474;2022-07-17T01:15:51;13.30;99.90
13898;DHT22;7019;50.766;4.474;2022-07-17T01:18:18;13.20;99.90
13898;DHT22;7019;50.766;4.474;2022-07-17T01:20:46;13.20;99.90
13898;DHT22;7019;50.766;4.474;2022-07-17T01:23:16;13.20;99.90
13898;DHT22;7019;50.766;4.474;2022-07-17T01:25:43;13.20;99.90
13898;DHT22;7019;50.766;4.474;2022-07-17T01:28:11;13.20;99.90
13898;DHT22;7019;50.766;4.474;2022-07-17T01:30:46;13.20;99.90
13898;DHT22;7019;50.766;4.474;2022-07-17T01:33:13;13.10;99.90
13898;DHT22;7019;50.766;4.474;2022-07-17T01:35:40;13.10;99.90
13898;DHT22;7019;50.766;4.474;2022-07-17T01:38:07;13.10;99.90
13898;DHT22;7019;50.766;4.474;2022-07-17T01:40:36;13.10;99.90
13898;DHT22;7019;50.766;4.474;2022-07-17T01:43:03;13.10;99.90
13898;DHT22;7019;50.766;4.474;2022-07-17T01:45:30;13.00;99.90
13898;DHT22;7019;50.766;4.474;2022-07-17T01:47:57;13.00;99.90
13898;DHT22;7019;50.766;4.474;2022-07-17T01:50:24;13.10;99.90
13898;DHT22;7019;50.766;4.474;2022-07-17T01:52:51;13.00;99.90
13898;DHT22;7019;50.766;4.474;2022-07-17T01:55:19;13.00;99.90
13898;DHT22;7019;50.766;4.474;2022-07-17T01:57:47;12.90;99.90
13898;DHT22;7019;50.766;4.474;2022-07-17T02:00:16;12.90;99.90
13898;DHT22;7019;50.766;4.474;2022-07-17T02:02:43;12.90;99.90
13898;DHT22;7019;50.766;4.474;2022-07-17T02:05:10;12.90;99.90
13898;DHT22;7019;50.766;4.474;2022-07-17T02:07:37;12.80;99.90
13898;DHT22;7019;50.766;4.474;2022-07-17T02:10:07;12.80;99.90
13898;DHT22;7019;50.766;4.474;2022-07-17T02:12:34;12.80;99.90
13898;DHT22;7019;50.766;4.474;2022-07-17T02:15:04;12.80;99.90
13898;DHT22;7019;50.766;4.474;2022-07-17T02:17:31;12.80;99.90
13898;DHT22;7019;50.766;4.474;2022-07-17T02:19:58;12.80;99.90
13898;DHT22;7019;50.766;4.474;2022-07-17T02:22:25;12.70;99.90
13898;DHT22;7019;50.766;4.474;2022-07-17T02:24:52;12.70;99.90
13898;DHT22;7019;50.766;4.474;2022-07-17T02:27:19;12.70;99.90
13898;DHT22;7019;50.766;4.474;2022-07-17T02:29:46;12.70;99.90
13898;DHT22;7019;50.766;4.474;2022-07-17T02:32:15;12.70;99.90
13898;DHT22;7019;50.766;4.474;2022-07-17T02:34:42;12.60;99.90
13898;DHT22;7019;50.766;4.474;2022-07-17T02:37:09;12.60;99.90
13898;DHT22;7019;50.766;4.474;2022-07-17T02:39:36;12.60;99.90
13898;DHT22;7019;50.766;4.474;2022-07-17T02:42:18;12.60;99.90
13898;DHT22;7019;50.766;4.474;2022-07-17T02:44:45;12.60;99.90
13898;DHT22;7019;50.766;4.474;2022-07-17T02:47:19;12.60;99.90
13898;DHT22;7019;50.766;4.474;2022-07-17T02:49:47;12.60;99.90
13898;DHT22;7019;50.766;4.474;2022-07-17T02:52:14;12.60;99.90
13898;DHT22;7019;50.766;4.474;2022-07-17T02:54:41;12.60;99.90
13898;DHT22;7019;50.766;4.474;2022-07-17T02:57:08;12.60;99.90
13898;DHT22;7019;50.766;4.474;2022-07-17T02:59:35;12.60;99.90
13898;DHT22;7019;50.766;4.474;2022-07-17T03:02:02;12.50;99.90
13898;DHT22;7019;50.766;4.474;2022-07-17T03:04:31;12.50;99.90
13898;DHT22;7019;50.766;4.474;2022-07-17T03:06:58;12.50;99.90
13898;DHT22;7019;50.766;4.474;2022-07-17T03:09:25;12.50;99.90
13898;DHT22;7019;50.766;4.474;2022-07-17T03:11:52;12.40;99.90
13898;DHT22;7019;50.766;4.474;2022-07-17T03:14:19;12.40;99.90
13898;DHT22;7019;50.766;4.474;2022-07-17T03:16:46;12.40;99.90
13898;DHT22;7019;50.766;4.474;2022-07-17T03:19:14;12.40;99.90
13898;DHT22;7019;50.766;4.474;2022-07-17T03:21:42;12.40;99.90
13898;DHT22;7019;50.766;4.474;2022-07-17T03:24:09;12.40;99.90
13898;DHT22;7019;50.766;4.474;2022-07-17T03:26:36;12.40;99.90
13898;DHT22;7019;50.766;4.474;2022-07-17T03:29:03;12.30;99.90
13898;DHT22;7019;50.766;4.474;2022-07-17T03:31:30;12.30;99.90
13898;DHT22;7019;50.766;4.474;2022-07-17T03:33:57;12.30;99.90
13898;DHT22;7019;50.766;4.474;2022-07-17T03:36:24;12.30;99.90
13898;DHT22;7019;50.766;4.474;2022-07-17T03:38:53;12.30;99.90
13898;DHT22;7019;50.766;4.474;2022-07-17T03:41:20;12.30;99.90
13898;DHT22;7019;50.766;4.474;2022-07-17T03:43:47;12.30;99.90
13898;DHT22;7019;50.766;4.474;2022-07-17T03:46:14;12.20;99.90
13898;DHT22;7019;50.766;4.474;2022-07-17T03:48:41;12.30;99.90
13898;DHT22;7019;50.766;4.474;2022-07-17T03:51:08;12.20;99.90
13898;DHT22;7019;50.766;4.474;2022-07-17T03:53:35;12.30;99.90
13898;DHT22;7019;50.766;4.474;2022-07-17T03:56:04;12.30;99.90
13898;DHT22;7019;50.766;4.474;2022-07-17T03:58:32;12.20;99.90
13898;DHT22;7019;50.766;4.474;2022-07-17T04:00:59;12.30;99.90
13898;DHT22;7019;50.766;4.474;2022-07-17T04:03:26;12.30;99.90
13898;DHT22;7019;50.766;4.474;2022-07-17T04:05:53;12.30;99.90
13898;DHT22;7019;50.766;4.474;2022-07-17T04:08:20;12.30;99.90
13898;DHT22;7019;50.766;4.474;2022-07-17T04:10:48;12.20;99.90
13898;DHT22;7019;50.766;4.474;2022-07-17T04:13:16;12.20;99.90
13898;DHT22;7019;50.766;4.474;2022-07-17T04:15:43;12.20;99.90
13898;DHT22;7019;50.766;4.474;2022-07-17T04:18:19;12.20;99.90
13898;DHT22;7019;50.766;4.474;2022-07-17T04:20:47;12.20;99.90
13898;DHT22;7019;50.766;4.474;2022-07-17T04:23:14;12.20;99.90
13898;DHT22;7019;50.766;4.474;2022-07-17T04:25:42;12.20;99.90
13898;DHT22;7019;50.766;4.474;2022-07-17T04:28:10;12.20;99.90
13898;DHT22;7019;50.766;4.474;2022-07-17T04:30:39;12.20;99.90
13898;DHT22;7019;50.766;4.474;2022-07-17T04:33:06;12.20;99.90
13898;DHT22;7019;50.766;4.474;2022-07-17T04:35:33;12.30;99.90
13898;DHT22;7019;50.766;4.474;2022-07-17T04:38:01;12.40;99.90
13898;DHT22;7019;50.766;4.474;2022-07-17T04:40:28;12.40;99.90
13898;DHT22;7019;50.766;4.474;2022-07-17T04:42:55;12.50;99.90
13898;DHT22;7019;50.766;4.474;2022-07-17T04:45:22;12.50;99.90
13898;DHT22;7019;50.766;4.474;2022-07-17T04:47:51;12.60;99.90
13898;DHT22;7019;50.766;4.474;2022-07-17T04:50:18;12.60;99.90
13898;DHT22;7019;50.766;4.474;2022-07-17T04:52:45;12.60;99.90
13898;DHT22;7019;50.766;4.474;2022-07-17T04:55:12;12.60;99.90
13898;DHT22;7019;50.766;4.474;2022-07-17T04:57:40;12.60;99.90
13898;DHT22;7019;50.766;4.474;2022-07-17T05:00:09;12.80;99.90
13898;DHT22;7019;50.766;4.474;2022-07-17T05:02:37;12.80;99.90
13898;DHT22;7019;50.766;4.474;2022-07-17T05:05:06;12.80;99.90
13898;DHT22;7019;50.766;4.474;2022-07-17T05:07:33;12.90;99.90
13898;DHT22;7019;50.766;4.474;2022-07-17T05:10:00;12.90;99.90
13898;DHT22;7019;50.766;4.474;2022-07-17T05:12:27;12.90;99.90
13898;DHT22;7019;50.766;4.474;2022-07-17T05:14:54;13.00;99.90
13898;DHT22;7019;50.766;4.474;2022-07-17T05:17:21;13.00;99.90
13898;DHT22;7019;50.766;4.474;2022-07-17T05:19:48;13.00;99.90
13898;DHT22;7019;50.766;4.474;2022-07-17T05:22:16;13.00;99.90
13898;DHT22;7019;50.766;4.474;2022-07-17T05:24:43;13.00;99.90
13898;DHT22;7019;50.766;4.474;2022-07-17T05:27:10;13.10;99.90
13898;DHT22;7019;50.766;4.474;2022-07-17T05:29:37;13.10;99.90
13898;DHT22;7019;50.766;4.474;2022-07-17T05:32:05;13.20;99.90
13898;DHT22;7019;50.766;4.474;2022-07-17T05:34:32;13.20;99.90
13898;DHT22;7019;50.766;4.474;2022-07-17T05:36:59;13.30;99.90
13898;DHT22;7019;50.766;4.474;2022-07-17T05:39:27;13.40;99.90
13898;DHT22;7019;50.766;4.474;2022-07-17T05:41:54;13.40;99.90
13898;DHT22;7019;50.766;4.474;2022-07-17T05:44:21;13.50;99.90
13898;DHT22;7019;50.766;4.474;2022-07-17T05:46:48;13.50;99.90
13898;DHT22;7019;50.766;4.474;2022-07-17T05:49:15;13.60;99.90
13898;DHT22;7019;50.766;4.474;2022-07-17T05:51:42;13.70;99.90
13898;DHT22;7019;50.766;4.474;2022-07-17T05:54:09;13.90;99.90
13898;DHT22;7019;50.766;4.474;2022-07-17T05:56:38;14.20;99.90
13898;DHT22;7019;50.766;4.474;2022-07-17T05:59:05;14.40;99.90
13898;DHT22;7019;50.766;4.474;2022-07-17T06:01:32;14.60;99.90
13898;DHT22;7019;50.766;4.474;2022-07-17T06:03:59;14.90;99.90
13898;DHT22;7019;50.766;4.474;2022-07-17T06:06:26;15.00;99.90
13898;DHT22;7019;50.766;4.474;2022-07-17T06:08:53;15.10;99.90
13898;DHT22;7019;50.766;4.474;2022-07-17T06:11:20;15.20;99.90
13898;DHT22;7019;50.766;4.474;2022-07-17T06:13:49;15.40;99.90
13898;DHT22;7019;50.766;4.474;2022-07-17T06:16:16;15.60;99.90
13898;DHT22;7019;50.766;4.474;2022-07-17T06:18:43;15.70;99.90
13898;DHT22;7019;50.766;4.474;2022-07-17T06:21:10;16.00;99.90
13898;DHT22;7019;50.766;4.474;2022-07-17T06:23:37;16.20;99.90
13898;DHT22;7019;50.766;4.474;2022-07-17T06:26:04;16.40;99.90
13898;DHT22;7019;50.766;4.474;2022-07-17T06:28:31;16.90;99.90
13898;DHT22;7019;50.766;4.474;2022-07-17T06:31:00;17.70;99.90
13898;DHT22;7019;50.766;4.474;2022-07-17T06:33:27;18.60;99.90
13898;DHT22;7019;50.766;4.474;2022-07-17T06:35:55;19.50;99.90
13898;DHT22;7019;50.766;4.474;2022-07-17T06:38:22;20.20;99.90
13898;DHT22;7019;50.766;4.474;2022-07-17T06:40:49;20.70;99.90
13898;DHT22;7019;50.766;4.474;2022-07-17T06:43:16;21.20;99.90
13898;DHT22;7019;50.766;4.474;2022-07-17T06:45:43;21.60;99.90
13898;DHT22;7019;50.766;4.474;2022-07-17T06:48:12;21.90;99.90
13898;DHT22;7019;50.766;4.474;2022-07-17T06:50:39;22.10;99.90
13898;DHT22;7019;50.766;4.474;2022-07-17T06:53:06;22.40;99.40
13898;DHT22;7019;50.766;4.474;2022-07-17T06:55:33;22.60;99.20
13898;DHT22;7019;50.766;4.474;2022-07-17T06:58:00;22.80;98.40
13898;DHT22;7019;50.766;4.474;2022-07-17T07:00:27;23.00;98.50
13898;DHT22;7019;50.766;4.474;2022-07-17T07:02:54;23.10;98.00
13898;DHT22;7019;50.766;4.474;2022-07-17T07:05:23;23.30;98.20
13898;DHT22;7019;50.766;4.474;2022-07-17T07:07:50;23.50;98.40
13898;DHT22;7019;50.766;4.474;2022-07-17T07:10:17;23.90;97.60
13898;DHT22;7019;50.766;4.474;2022-07-17T07:12:44;24.00;97.20
13898;DHT22;7019;50.766;4.474;2022-07-17T07:15:11;24.30;97.20
13898;DHT22;7019;50.766;4.474;2022-07-17T07:17:40;24.60;96.40
13898;DHT22;7019;50.766;4.474;2022-07-17T07:20:08;24.70;96.70
13898;DHT22;7019;50.766;4.474;2022-07-17T07:22:37;24.60;95.70
13898;DHT22;7019;50.766;4.474;2022-07-17T07:25:05;24.60;96.20
13898;DHT22;7019;50.766;4.474;2022-07-17T07:27:32;24.70;96.00
13898;DHT22;7019;50.766;4.474;2022-07-17T07:29:59;25.30;95.20
13898;DHT22;7019;50.766;4.474;2022-07-17T07:32:26;25.00;95.80
13898;DHT22;7019;50.766;4.474;2022-07-17T07:34:54;25.10;95.10
13898;DHT22;7019;50.766;4.474;2022-07-17T07:37:21;25.50;94.70
13898;DHT22;7019;50.766;4.474;2022-07-17T07:39:50;25.60;94.30
13898;DHT22;7019;50.766;4.474;2022-07-17T07:42:17;25.80;95.00
13898;DHT22;7019;50.766;4.474;2022-07-17T07:44:44;26.20;94.50
13898;DHT22;7019;50.766;4.474;2022-07-17T07:47:11;26.40;93.70
13898;DHT22;7019;50.766;4.474;2022-07-17T07:49:38;26.50;93.90
13898;DHT22;7019;50.766;4.474;2022-07-17T07:52:06;26.60;93.30
13898;DHT22;7019;50.766;4.474;2022-07-17T07:54:33;26.60;93.00
13898;DHT22;7019;50.766;4.474;2022-07-17T07:57:01;26.90;93.30
13898;DHT22;7019;50.766;4.474;2022-07-17T07:59:29;27.20;92.80
13898;DHT22;7019;50.766;4.474;2022-07-17T08:01:58;27.60;92.30
13898;DHT22;7019;50.766;4.474;2022-07-17T08:04:25;27.70;92.00
13898;DHT22;7019;50.766;4.474;2022-07-17T08:06:53;27.50;92.10
13898;DHT22;7019;50.766;4.474;2022-07-17T08:09:20;27.80;91.60
13898;DHT22;7019;50.766;4.474;2022-07-17T08:11:47;27.90;91.60
13898;DHT22;7019;50.766;4.474;2022-07-17T08:14:16;28.00;91.50
13898;DHT22;7019;50.766;4.474;2022-07-17T08:16:43;28.20;90.80
13898;DHT22;7019;50.766;4.474;2022-07-17T08:19:11;27.70;91.60
13898;DHT22;7019;50.766;4.474;2022-07-17T08:21:38;27.50;91.00
13898;DHT22;7019;50.766;4.474;2022-07-17T08:24:05;27.70;90.70
13898;DHT22;7019;50.766;4.474;2022-07-17T08:26:32;28.00;90.40
13898;DHT22;7019;50.766;4.474;2022-07-17T08:28:59;27.80;90.50
13898;DHT22;7019;50.766;4.474;2022-07-17T08:31:28;27.80;90.80
13898;DHT22;7019;50.766;4.474;2022-07-17T08:33:55;28.00;91.10
13898;DHT22;7019;50.766;4.474;2022-07-17T08:36:22;28.10;90.20
13898;DHT22;7019;50.766;4.474;2022-07-17T08:38:49;28.40;90.00
13898;DHT22;7019;50.766;4.474;2022-07-17T08:41:16;28.50;90.40
13898;DHT22;7019;50.766;4.474;2022-07-17T08:43:47;28.70;90.00
13898;DHT22;7019;50.766;4.474;2022-07-17T08:46:17;29.00;88.90
13898;DHT22;7019;50.766;4.474;2022-07-17T08:48:46;28.70;87.90
13898;DHT22;7019;50.766;4.474;2022-07-17T08:51:16;29.00;88.60
13898;DHT22;7019;50.766;4.474;2022-07-17T08:53:44;29.10;87.10
13898;DHT22;7019;50.766;4.474;2022-07-17T08:56:11;29.30;86.30
13898;DHT22;7019;50.766;4.474;2022-07-17T08:58:38;29.30;87.30
13898;DHT22;7019;50.766;4.474;2022-07-17T09:01:06;29.20;86.30
13898;DHT22;7019;50.766;4.474;2022-07-17T09:03:33;28.80;85.60
13898;DHT22;7019;50.766;4.474;2022-07-17T09:06:03;28.90;86.80
13898;DHT22;7019;50.766;4.474;2022-07-17T09:08:30;28.80;86.90
13898;DHT22;7019;50.766;4.474;2022-07-17T09:11:05;28.70;86.50
13898;DHT22;7019;50.766;4.474;2022-07-17T09:13:33;28.70;86.60
13898;DHT22;7019;50.766;4.474;2022-07-17T09:16:07;28.60;86.20
13898;DHT22;7019;50.766;4.474;2022-07-17T09:18:43;28.20;87.40
13898;DHT22;7019;50.766;4.474;2022-07-17T09:21:16;28.60;86.70
13898;DHT22;7019;50.766;4.474;2022-07-17T09:23:44;28.40;86.80
13898;DHT22;7019;50.766;4.474;2022-07-17T09:26:11;28.30;86.80
13898;DHT22;7019;50.766;4.474;2022-07-17T09:28:44;28.30;87.00
13898;DHT22;7019;50.766;4.474;2022-07-17T09:31:12;28.50;87.90
13898;DHT22;7019;50.766;4.474;2022-07-17T09:33:42;28.60;88.40
13898;DHT22;7019;50.766;4.474;2022-07-17T09:36:12;28.30;87.10
13898;DHT22;7019;50.766;4.474;2022-07-17T09:38:41;28.80;88.60
13898;DHT22;7019;50.766;4.474;2022-07-17T09:41:11;28.60;87.90
13898;DHT22;7019;50.766;4.474;2022-07-17T09:43:41;28.70;87.50
13898;DHT22;7019;50.766;4.474;2022-07-17T09:46:12;29.10;87.90
13898;DHT22;7019;50.766;4.474;2022-07-17T09:48:42;29.40;85.40
13898;DHT22;7019;50.766;4.474;2022-07-17T09:51:16;29.00;85.70
13898;DHT22;7019;50.766;4.474;2022-07-17T09:53:45;29.30;88.10
13898;DHT22;7019;50.766;4.474;2022-07-17T09:56:15;29.50;86.60
13898;DHT22;7019;50.766;4.474;2022-07-17T09:58:45;29.50;85.50
13898;DHT22;7019;50.766;4.474;2022-07-17T10:01:14;29.40;83.90
13898;DHT22;7019;50.766;4.474;2022-07-17T10:03:41;29.80;84.90
13898;DHT22;7019;50.766;4.474;2022-07-17T10:06:09;29.90;84.10
13898;DHT22;7019;50.766;4.474;2022-07-17T10:08:38;30.20;84.80
13898;DHT22;7019;50.766;4.474;2022-07-17T10:11:06;30.20;83.80
13898;DHT22;7019;50.766;4.474;2022-07-17T10:13:34;29.70;85.40
13898;DHT22;7019;50.766;4.474;2022-07-17T10:16:02;29.60;83.20
13898;DHT22;7019;50.766;4.474;2022-07-17T10:18:38;29.10;84.20
13898;DHT22;7019;50.766;4.474;2022-07-17T10:21:10;28.80;85.10
13898;DHT22;7019;50.766;4.474;2022-07-17T10:23:41;28.80;85.30
13898;DHT22;7019;50.766;4.474;2022-07-17T10:26:09;28.90;85.50
13898;DHT22;7019;50.766;4.474;2022-07-17T10:28:43;29.10;86.80
13898;DHT22;7019;50.766;4.474;2022-07-17T10:31:22;29.20;87.40
13898;DHT22;7019;50.766;4.474;2022-07-17T10:33:55;29.00;86.40
13898;DHT22;7019;50.766;4.474;2022-07-17T10:36:35;29.20;87.20
13898;DHT22;7019;50.766;4.474;2022-07-17T10:39:14;28.90;85.20
13898;DHT22;7019;50.766;4.474;2022-07-17T10:41:43;28.70;85.70
13898;DHT22;7019;50.766;4.474;2022-07-17T10:44:24;28.70;87.50
13898;DHT22;7019;50.766;4.474;2022-07-17T10:46:52;28.80;87.70
13898;DHT22;7019;50.766;4.474;2022-07-17T10:49:19;28.60;86.00
13898;DHT22;7019;50.766;4.474;2022-07-17T10:51:47;28.70;86.10
13898;DHT22;7019;50.766;4.474;2022-07-17T10:54:15;29.10;87.50
13898;DHT22;7019;50.766;4.474;2022-07-17T10:56:42;29.70;84.10
13898;DHT22;7019;50.766;4.474;2022-07-17T10:59:10;29.90;82.90
13898;DHT22;7019;50.766;4.474;2022-07-17T11:01:37;30.10;84.00
13898;DHT22;7019;50.766;4.474;2022-07-17T11:04:05;29.80;84.10
13898;DHT22;7019;50.766;4.474;2022-07-17T11:06:35;29.50;83.10
13898;DHT22;7019;50.766;4.474;2022-07-17T11:09:04;29.40;83.70
13898;DHT22;7019;50.766;4.474;2022-07-17T11:11:38;29.20;83.40
13898;DHT22;7019;50.766;4.474;2022-07-17T11:14:09;29.10;82.80
13898;DHT22;7019;50.766;4.474;2022-07-17T11:16:37;29.20;82.70
13898;DHT22;7019;50.766;4.474;2022-07-17T11:19:05;29.10;80.50
13898;DHT22;7019;50.766;4.474;2022-07-17T11:21:32;28.90;82.50
13898;DHT22;7019;50.766;4.474;2022-07-17T11:24:01;28.40;83.30
13898;DHT22;7019;50.766;4.474;2022-07-17T11:26:28;28.40;85.00
13898;DHT22;7019;50.766;4.474;2022-07-17T11:28:56;28.50;86.40
13898;DHT22;7019;50.766;4.474;2022-07-17T11:31:25;28.90;85.10
13898;DHT22;7019;50.766;4.474;2022-07-17T11:33:55;28.90;84.00
13898;DHT22;7019;50.766;4.474;2022-07-17T11:36:25;28.80;84.80
13898;DHT22;7019;50.766;4.474;2022-07-17T11:38:54;28.50;84.40
13898;DHT22;7019;50.766;4.474;2022-07-17T11:41:21;28.90;85.30
13898;DHT22;7019;50.766;4.474;2022-07-17T11:43:48;29.30;82.60
13898;DHT22;7019;50.766;4.474;2022-07-17T11:46:16;29.20;83.00
13898;DHT22;7019;50.766;4.474;2022-07-17T11:48:44;29.30;80.90
13898;DHT22;7019;50.766;4.474;2022-07-17T11:51:11;29.50;81.20
13898;DHT22;7019;50.766;4.474;2022-07-17T11:53:39;29.80;81.20
13898;DHT22;7019;50.766;4.474;2022-07-17T11:56:07;29.60;79.90
13898;DHT22;7019;50.766;4.474;2022-07-17T11:58:43;28.90;81.50
13898;DHT22;7019;50.766;4.474;2022-07-17T12:01:11;29.00;83.00
13898;DHT22;7019;50.766;4.474;2022-07-17T12:03:39;29.40;82.60
13898;DHT22;7019;50.766;4.474;2022-07-17T12:06:07;29.60;82.40
13898;DHT22;7019;50.766;4.474;2022-07-17T12:08:34;29.70;82.00
13898;DHT22;7019;50.766;4.474;2022-07-17T12:11:04;29.50;81.10
13898;DHT22;7019;50.766;4.474;2022-07-17T12:13:40;29.50;81.90
13898;DHT22;7019;50.766;4.474;2022-07-17T12:16:21;29.40;83.00
13898;DHT22;7019;50.766;4.474;2022-07-17T12:19:01;29.30;84.20
13898;DHT22;7019;50.766;4.474;2022-07-17T12:21:31;29.00;84.60
13898;DHT22;7019;50.766;4.474;2022-07-17T12:24:01;29.20;82.30
13898;DHT22;7019;50.766;4.474;2022-07-17T12:26:29;29.40;81.30
13898;DHT22;7019;50.766;4.474;2022-07-17T12:28:56;29.40;82.00
13898;DHT22;7019;50.766;4.474;2022-07-17T12:31:23;29.00;82.70
13898;DHT22;7019;50.766;4.474;2022-07-17T12:33:52;28.40;84.50
13898;DHT22;7019;50.766;4.474;2022-07-17T12:36:21;28.30;84.50
13898;DHT22;7019;50.766;4.474;2022-07-17T12:38:49;28.80;85.20
13898;DHT22;7019;50.766;4.474;2022-07-17T12:41:16;29.30;83.80
13898;DHT22;7019;50.766;4.474;2022-07-17T12:43:43;29.20;82.30
13898;DHT22;7019;50.766;4.474;2022-07-17T12:46:10;29.30;82.50
13898;DHT22;7019;50.766;4.474;2022-07-17T12:48:38;29.30;81.70
13898;DHT22;7019;50.766;4.474;2022-07-17T12:51:07;29.40;82.00
13898;DHT22;7019;50.766;4.474;2022-07-17T12:53:36;29.30;83.10
13898;DHT22;7019;50.766;4.474;2022-07-17T12:56:04;29.60;82.10
13898;DHT22;7019;50.766;4.474;2022-07-17T12:58:32;29.90;82.10
13898;DHT22;7019;50.766;4.474;2022-07-17T13:00:59;29.70;82.20
13898;DHT22;7019;50.766;4.474;2022-07-17T13:03:26;29.90;81.10
13898;DHT22;7019;50.766;4.474;2022-07-17T13:05:54;29.90;80.60
13898;DHT22;7019;50.766;4.474;2022-07-17T13:08:21;29.90;81.10
13898;DHT22;7019;50.766;4.474;2022-07-17T13:10:49;29.60;79.10
13898;DHT22;7019;50.766;4.474;2022-07-17T13:13:16;29.20;81.40
13898;DHT22;7019;50.766;4.474;2022-07-17T13:15:43;29.10;82.00
13898;DHT22;7019;50.766;4.474;2022-07-17T13:18:10;29.50;82.30
13898;DHT22;7019;50.766;4.474;2022-07-17T13:20:37;29.60;81.90
13898;DHT22;7019;50.766;4.474;2022-07-17T13:23:04;29.40;83.20
13898;DHT22;7019;50.766;4.474;2022-07-17T13:25:31;29.60;82.30
13898;DHT22;7019;50.766;4.474;2022-07-17T13:28:00;29.30;83.20
13898;DHT22;7019;50.766;4.474;2022-07-17T13:30:27;29.50;83.80
13898;DHT22;7019;50.766;4.474;2022-07-17T13:32:54;29.80;84.60
13898;DHT22;7019;50.766;4.474;2022-07-17T13:35:21;29.60;83.70
13898;DHT22;7019;50.766;4.474;2022-07-17T13:37:48;29.90;82.30
13898;DHT22;7019;50.766;4.474;2022-07-17T13:40:15;30.30;80.80
13898;DHT22;7019;50.766;4.474;2022-07-17T13:42:45;30.40;80.80
13898;DHT22;7019;50.766;4.474;2022-07-17T13:45:13;30.30;80.40
13898;DHT22;7019;50.766;4.474;2022-07-17T13:47:40;30.20;80.00
13898;DHT22;7019;50.766;4.474;2022-07-17T13:50:08;30.40;84.70
13898;DHT22;7019;50.766;4.474;2022-07-17T13:52:36;30.50;80.90
13898;DHT22;7019;50.766;4.474;2022-07-17T13:55:04;30.30;80.50
13898;DHT22;7019;50.766;4.474;2022-07-17T13:57:31;29.90;83.20
13898;DHT22;7019;50.766;4.474;2022-07-17T13:59:58;29.40;82.70
13898;DHT22;7019;50.766;4.474;2022-07-17T14:02:28;29.00;81.80
13898;DHT22;7019;50.766;4.474;2022-07-17T14:04:55;28.70;82.90
13898;DHT22;7019;50.766;4.474;2022-07-17T14:07:22;29.20;83.80
13898;DHT22;7019;50.766;4.474;2022-07-17T14:09:49;29.20;82.00
13898;DHT22;7019;50.766;4.474;2022-07-17T14:12:16;29.20;81.20
13898;DHT22;7019;50.766;4.474;2022-07-17T14:14:43;29.30;82.10
13898;DHT22;7019;50.766;4.474;2022-07-17T14:17:10;29.20;80.90
13898;DHT22;7019;50.766;4.474;2022-07-17T14:19:39;29.30;81.60
13898;DHT22;7019;50.766;4.474;2022-07-17T14:22:08;29.40;82.40
13898;DHT22;7019;50.766;4.474;2022-07-17T14:24:35;29.70;79.60
13898;DHT22;7019;50.766;4.474;2022-07-17T14:27:02;29.60;83.40
13898;DHT22;7019;50.766;4.474;2022-07-17T14:29:29;29.50;81.20
13898;DHT22;7019;50.766;4.474;2022-07-17T14:31:57;29.30;79.50
13898;DHT22;7019;50.766;4.474;2022-07-17T14:34:24;29.30;81.30
13898;DHT22;7019;50.766;4.474;2022-07-17T14:36:52;29.70;82.00
13898;DHT22;7019;50.766;4.474;2022-07-17T14:39:19;29.70;81.70
13898;DHT22;7019;50.766;4.474;2022-07-17T14:41:46;29.40;83.10
13898;DHT22;7019;50.766;4.474;2022-07-17T14:44:14;29.40;82.60
13898;DHT22;7019;50.766;4.474;2022-07-17T14:46:41;29.40;82.00
13898;DHT22;7019;50.766;4.474;2022-07-17T14:49:08;29.30;82.00
13898;DHT22;7019;50.766;4.474;2022-07-17T14:51:35;29.20;80.80
13898;DHT22;7019;50.766;4.474;2022-07-17T14:54:03;29.20;81.60
13898;DHT22;7019;50.766;4.474;2022-07-17T14:56:30;29.00;80.50
13898;DHT22;7019;50.766;4.474;2022-07-17T14:58:57;28.60;81.00
13898;DHT22;7019;50.766;4.474;2022-07-17T15:01:24;28.50;82.00
13898;DHT22;7019;50.766;4.474;2022-07-17T15:03:51;28.80;81.90
13898;DHT22;7019;50.766;4.474;2022-07-17T15:06:18;29.00;80.20
13898;DHT22;7019;50.766;4.474;2022-07-17T15:08:45;29.20;79.60
13898;DHT22;7019;50.766;4.474;2022-07-17T15:11:14;29.20;79.80
13898;DHT22;7019;50.766;4.474;2022-07-17T15:13:41;29.20;80.30
13898;DHT22;7019;50.766;4.474;2022-07-17T15:16:08;29.50;79.20
13898;DHT22;7019;50.766;4.474;2022-07-17T15:18:35;29.30;79.80
13898;DHT22;7019;50.766;4.474;2022-07-17T15:21:02;29.10;80.40
13898;DHT22;7019;50.766;4.474;2022-07-17T15:23:30;28.90;80.60
13898;DHT22;7019;50.766;4.474;2022-07-17T15:25:57;28.80;80.00
13898;DHT22;7019;50.766;4.474;2022-07-17T15:28:25;28.80;80.20
13898;DHT22;7019;50.766;4.474;2022-07-17T15:30:52;28.50;81.30
13898;DHT22;7019;50.766;4.474;2022-07-17T15:33:19;28.50;80.50
13898;DHT22;7019;50.766;4.474;2022-07-17T15:35:46;28.70;80.70
13898;DHT22;7019;50.766;4.474;2022-07-17T15:38:13;28.60;79.80
13898;DHT22;7019;50.766;4.474;2022-07-17T15:40:41;28.50;80.10
13898;DHT22;7019;50.766;4.474;2022-07-17T15:43:08;28.50;80.40
13898;DHT22;7019;50.766;4.474;2022-07-17T15:45:36;28.50;79.80
13898;DHT22;7019;50.766;4.474;2022-07-17T15:48:04;28.70;78.10
13898;DHT22;7019;50.766;4.474;2022-07-17T15:50:31;28.80;80.00